WEATHER DATA

YESTERDAY
Time Temp. Dewp. Hum. Wind dir Wind speed Wind gust Bar. 1h Prec. 24h Prec.
00:07 24.9 20.2 75 131 0.6 1.9 1020 0.0000 0.0000
00:18 24.8 20.3 76 90 0.3 1.1 1020 0.0000 0.0000
00:28 24.8 20.1 75 135 0.6 1.9 1020 0.0000 0.0000
00:38 24.8 20.1 75 135 0.6 1.4 1019.9 0.0000 0.0000
00:48 24.8 20.3 76 135 0.6 2.5 1020 0.0000 0.0000
00:58 24.8 20.3 76 124 0.3 1.1 1019.9 0.0000 0.0000
01:08 24.8 20.1 75 128 0.3 1.7 1019.9 0.0000 0.0000
01:18 24.7 20 75 124 0.3 1.4 1020 0.0000 0.0000
01:38 24.6 20.1 76 135 0.3 1.1 1020 0.0000 0.0000
01:48 24.6 20.1 76 122 0.3 1.1 1020.1 0.0000 0.0000
01:58 24.5 19.8 75 30 0.3 0.8 1020.1 0.0000 0.0000
02:09 24.3 19.6 75 331 0.3 1.1 1020 0.0000 0.0000
02:19 23.9 19.4 76 339 0.8 1.7 1020 0.0000 0.0000
02:28 23.6 19.1 76 315 0.3 1.1 1020 0.0000 0.0000
02:39 23.2 18.9 77 320 0.3 0.8 1019.9 0.0000 0.0000
02:49 22.9 18.9 78 326 0.3 1.1 1019.9 0.0000 0.0000
02:59 22.7 18.7 78 333 0.3 1.1 1019.8 0.0000 0.0000
03:09 22.5 18.7 79 322 0.3 1.7 1019.8 0.0000 0.0000
03:19 22.3 18.5 79 345 0.3 0.8 1019.8 0.0000 0.0000
03:29 22 18.4 80 341 0.3 0.6 1019.7 0.0000 0.0000
03:39 21.9 18.3 80 270 0.3 1.1 1019.7 0.0000 0.0000
03:50 21.7 18.3 81 329 0.6 1.4 1019.6 0.0000 0.0000
03:59 21.6 18.2 81 335 0.8 1.9 1019.7 0.0000 0.0000
04:09 21.6 18.2 81 337 1.1 2.2 1019.6 0.0000 0.0000
04:19 21.6 18.4 82 335 0.8 1.9 1019.7 0.0000 0.0000
04:30 21.6 18.4 82 336 0.8 1.9 1019.6 0.0000 0.0000
04:39 21.6 18.4 82 335 0.8 1.7 1019.6 0.0000 0.0000
04:49 21.5 18.3 82 335 0.8 1.9 1019.5 0.0000 0.0000
05:00 21.4 18.2 82 338 0.8 1.7 1019.5 0.0000 0.0000
05:10 21.3 18.1 82 339 0.8 1.9 1019.5 0.0000 0.0000
05:20 21.2 18 82 329 0.6 1.4 1019.5 0.0000 0.0000
05:29 21 17.8 82 323 0.3 1.1 1019.5 0.0000 0.0000
05:40 20.8 17.6 82 315 0.6 1.7 1019.5 0.0000 0.0000
05:50 20.7 17.5 82 305 0.3 1.1 1019.6 0.0000 0.0000
06:00 20.6 17.4 82 322 0.3 1.1 1019.7 0.0000 0.0000
06:10 20.6 17.4 82 319 0.6 1.4 1019.8 0.0000 0.0000
06:20 20.5 17.3 82 309 0.3 0.8 1019.8 0.0000 0.0000
06:30 20.4 17.2 82 153 0.3 0.8 1019.9 0.0000 0.0000
06:40 20.3 17.1 82 0 0.6 1019.9 0.0000 0.0000
06:51 20.3 17.1 82 351 0.6 1.4 1019.9 0.0000 0.0000
07:00 20.5 17.5 83 334 0.6 1.1 1019.9 0.0000 0.0000
07:10 20.8 17.6 82 329 0.6 1.4 1019.9 0.0000 0.0000
07:21 21.2 17.8 81 165 0.3 0.8 1020 0.0000 0.0000
07:31 21.5 17.9 80 135 0.3 0.6 1020 0.0000 0.0000
07:40 21.8 18 79 135 0.3 0.8 1019.9 0.0000 0.0000
07:51 22.1 18.3 79 135 0.3 0.8 1020 0.0000 0.0000
08:01 22.3 18.3 78 324 0.3 0.8 1020.1 0.0000 0.0000
08:11 22.5 18.3 77 270 0.3 0.6 1020.1 0.0000 0.0000
08:21 22.8 18.4 76 0 0.6 1020.1 0.0000 0.0000
08:31 23.1 18.4 75 135 0.3 0.8 1020.2 0.0000 0.0000
08:41 23.6 18.9 75 156 0.3 1.1 1020.2 0.0000 0.0000
08:51 24.4 19.7 75 141 0.6 1.7 1020.1 0.0000 0.0000
09:01 25.2 20.2 74 121 0.6 1.4 1020.2 0.0000 0.0000
09:11 26.1 20.2 70 135 0.6 1.7 1020.2 0.0000 0.0000
09:21 26.7 20.1 67 90 0.3 1.4 1020.2 0.0000 0.0000
09:31 27.1 20 65 90 0.6 1.9 1020.2 0.0000 0.0000
09:42 27.5 19.8 63 123 0.3 1.7 1020.2 0.0000 0.0000
09:52 27.8 19.9 62 90 0.3 1.7 1020.2 0.0000 0.0000
10:01 28 20 62 90 0.6 2.5 1020.2 0.0000 0.0000
10:11 28.3 19.8 60 119 0.6 2.8 1020.2 0.0000 0.0000
10:22 28.4 19.9 60 135 0.6 1.7 1020.2 0.0000 0.0000
10:32 28.5 19.7 59 105 0.6 1.7 1020.3 0.0000 0.0000
10:41 28.6 19.5 58 148 0.6 1.9 1020.3 0.0000 0.0000
10:52 28.8 19.4 57 124 0.6 1.4 1020.2 0.0000 0.0000
11:02 28.9 20.1 59 120 0.6 3.1 1020.2 0.0000 0.0000
11:12 28.9 19.8 58 138 0.6 1.9 1020.1 0.0000 0.0000
11:22 29.1 20 58 109 0.6 2.8 1020.1 0.0000 0.0000
11:32 29.2 19.8 57 126 0.8 3.1 1020 0.0000 0.0000
11:42 29.3 19.6 56 117 0.6 1.9 1020.1 0.0000 0.0000
11:52 29.4 19.4 55 135 0.8 3.3 1020 0.0000 0.0000
12:03 29.5 19.5 55 126 1.1 4.2 1020.1 0.0000 0.0000
12:12 29.4 19.4 55 127 0.8 3.3 1020 0.0000 0.0000
12:22 29.5 19.2 54 132 0.6 2.5 1020 0.0000 0.0000
12:32 29.5 19.5 55 137 0.8 3.6 1019.9 0.0000 0.0000
12:43 29.5 19.2 54 132 0.8 2.5 1019.9 0.0000 0.0000
12:53 29.6 19.6 55 135 0.6 2.2 1019.8 0.0000 0.0000
13:02 29.7 19.4 54 123 0.8 3.3 1019.7 0.0000 0.0000
13:13 29.7 19.4 54 132 0.8 3.6 1019.6 0.0000 0.0000
13:23 29.8 19.5 54 133 0.8 3.3 1019.5 0.0000 0.0000
13:33 29.8 19.2 53 128 1.1 3.1 1019.4 0.0000 0.0000
13:43 29.8 19.2 53 127 1.1 3.3 1019.3 0.0000 0.0000
13:53 29.8 18.9 52 132 0.8 3.3 1019.2 0.0000 0.0000
14:03 29.8 19.2 53 122 1.1 3.1 1019.1 0.0000 0.0000
14:13 29.8 19.2 53 122 1.1 3.6 1019 0.0000 0.0000
14:24 29.8 19.2 53 125 0.8 2.8 1019.1 0.0000 0.0000
14:33 29.7 18.8 52 115 0.8 2.8 1019.1 0.0000 0.0000
14:43 29.6 19.6 55 132 0.8 3.1 1019 0.0000 0.0000
14:53 29.5 19.8 56 131 0.6 2.2 1018.9 0.0000 0.0000
15:04 29.4 20 57 130 0.8 2.8 1018.8 0.0000 0.0000
15:13 29.4 20 57 120 1.1 2.8 1018.7 0.0000 0.0000
15:23 29.3 19.6 56 133 0.8 3.1 1018.5 0.0000 0.0000
15:34 29.2 19.5 56 122 1.1 3.9 1018.5 0.0000 0.0000
15:44 29.2 19.2 55 135 0.8 3.3 1018.4 0.0000 0.0000
15:53 29.2 18.9 54 128 1.1 4.2 1018.3 0.0000 0.0000
16:02 29.1 19.1 55 137 0.8 3.1 1018.4 0.0000 0.0000
16:14 28.9 19.2 56 125 0.8 4.2 1018.3 0.0000 0.0000
16:24 28.8 19.2 56 135 0.6 2.8 1018.2 0.0000 0.0000
16:34 28.4 19.1 57 133 1.1 3.3 1018.2 0.0000 0.0000
16:44 27.9 18.6 57 120 0.8 2.5 1018.1 0.0000 0.0000
16:54 27.5 18.2 57 120 0.6 1.7 1018.1 0.0000 0.0000
17:04 27.2 17.9 57 142 0.6 3.1 1017.9 0.0000 0.0000
17:14 26.9 18.2 59 119 0.6 3.1 1017.9 0.0000 0.0000
17:24 26.7 18 59 137 0.8 3.9 1017.8 0.0000 0.0000
17:35 26.5 18.1 60 135 0.6 3.1 1017.8 0.0000 0.0000
17:45 26.3 18.2 61 132 0.8 2.2 1017.6 0.0000 0.0000
17:54 26.1 18 61 149 0.6 2.2 1017.6 0.0000 0.0000
18:04 26.1 18.3 62 129 0.6 2.8 1017.5 0.0000 0.0000
18:15 25.9 18.1 62 125 0.8 2.5 1017.5 0.0000 0.0000
18:25 25.8 18.5 64 128 0.6 2.5 1017.5 0.0000 0.0000
18:34 25.7 18.4 64 119 0.6 2.2 1017.6 0.0000 0.0000
18:45 25.6 18.5 65 122 0.6 2.2 1017.6 0.0000 0.0000
18:55 25.6 18.5 65 122 0.3 1.4 1017.5 0.0000 0.0000
19:05 25.5 18.4 65 122 0.6 2.5 1017.6 0.0000 0.0000
19:15 25.5 18.4 65 127 0.8 2.5 1017.5 0.0000 0.0000
19:25 25.4 18.3 65 128 0.6 2.8 1017.5 0.0000 0.0000
19:35 25.4 18.6 66 135 0.6 1.9 1017.5 0.0000 0.0000
19:45 25.3 18.5 66 132 0.8 2.8 1017.4 0.0000 0.0000
19:56 25.3 18.7 67 135 0.3 1.4 1017.4 0.0000 0.0000
20:05 25.2 18.6 67 135 0.6 1.7 1017.4 0.0000 0.0000
20:15 25.1 18.5 67 130 0.6 1.7 1017.4 0.0000 0.0000
20:25 25 18.4 67 126 0.6 2.5 1017.3 0.0000 0.0000
20:36 25 18.7 68 126 0.6 1.9 1017.2 0.0000 0.0000
20:45 24.9 18.4 67 135 0.8 3.1 1017.2 0.0000 0.0000
20:55 24.8 18.5 68 122 0.6 1.9 1017.2 0.0000 0.0000
21:06 24.8 18.7 69 127 0.6 2.5 1017.3 0.0000 0.0000
21:16 24.8 19 70 130 0.6 1.7 1017.5 0.0000 0.0000
21:26 24.7 18.6 69 132 0.8 2.5 1017.6 0.0000 0.0000
21:36 24.7 18.4 68 132 0.8 1.9 1017.6 0.0000 0.0000
21:46 24.8 18.5 68 135 0.8 2.2 1017.7 0.0000 0.0000
21:56 24.8 18.7 69 130 0.8 3.1 1017.7 0.0000 0.0000
22:06 24.7 18.6 69 135 0.6 1.7 1017.7 0.0000 0.0000
22:16 24.7 18.9 70 131 0.6 1.9 1017.6 0.0000 0.0000
22:26 24.7 18.9 70 90 0.3 1.4 1017.5 0.0000 0.0000
22:36 24.7 18.6 69 90 0.3 1.9 1017.4 0.0000 0.0000
22:46 24.6 18.5 69 128 0.6 1.7 1017.4 0.0000 0.0000
22:57 24.6 18.8 70 132 0.6 1.9 1017.4 0.0000 0.0000
23:06 24.6 18.8 70 131 0.6 1.9 1017.5 0.0000 0.0000
23:16 24.6 19 71 135 0.3 1.1 1017.4 0.0000 0.0000
23:27 24.6 19 71 135 0.6 1.9 1017.3 0.0000 0.0000
23:37 24.6 18.8 70 122 0.6 2.5 1017.2 0.0000 0.0000
23:46 24.6 18.5 69 90 0.3 1.1 1017.1 0.0000 0.0000
23:57 24.5 18.4 69 140 0.3 1.1 1017.1 0.0000

DAY STATISTIC

2020-08-03
TEMPERATURE
AVERAGE
25.5
HIGH
29.8
13:23
LOW
20.3
06:40
PRESSURE
AVERAGE
1019.0
HIGH
1020.3
10:32
LOW
1017.1
23:46
DEWPOINT
AVERAGE
18.9
HIGH
20.3
00:18
LOW
17.1
06:40
HUMIDITY
AVERAGE
68
HIGH
83
07:00
LOW
52
13:53
WIND SPEED
AVERAGE
0.6
HIGH
1.1
04:09
WIND GUST
AVERAGE
2.0
HIGH
4.2
12:03
WIND DIRECTION
PREVAILING
SE
68.3%
N
4.2
NE
0.7
E
7.0
SE
68.3
S
0.7
SW
0.0
W
1.4
NW
16.2
PRECIPITATION
RAIN HOUR
0.0
RAIN DAY
0.0
TEMPERATURE (°C)
LOW
20.3
HIGH
29.8
AVERAGE
25.5
PRESSURE (hpa)
LOW
1017.1
HIGH
1020.3
AVERAGE
1019.0
DEVICE